Time;durP1;ratioP1;P1;durP2;ratioP2;P2;SDS_P1;SDS_P2;PMS_P1;PMS_P2;Temp;Humidity;BMP_temperature;BMP_pressure;BME280_temperature;BME280_humidity;BME280_pressure;Samples;Min_cycle;Max_cycle;Signal;HPM_P1;HPM_P2
2021/09/19 00:01:47;;;;;;;20.40;18.40;;;15.00;99.90;;;;;;6136290;23;20434;-91
2021/09/19 00:04:15;;;;;;;20.47;18.50;;;15.00;99.90;;;;;;6135759;23;20408;-89
2021/09/19 00:06:43;;;;;;;20.50;18.43;;;14.90;99.90;;;;;;6132955;23;20411;-90
2021/09/19 00:09:10;;;;;;;20.90;18.90;;;15.00;99.90;;;;;;6132068;23;20417;-89
2021/09/19 00:11:37;;;;;;;20.70;18.77;;;14.90;99.90;;;;;;6132573;23;20414;-91
2021/09/19 00:14:04;;;;;;;20.00;18.20;;;14.90;99.90;;;;;;6132930;23;20491;-91
2021/09/19 00:16:31;;;;;;;22.03;19.93;;;14.90;99.90;;;;;;6135240;23;20443;-91
2021/09/19 00:18:58;;;;;;;21.00;19.00;;;14.80;99.90;;;;;;6132508;23;20510;-90
2021/09/19 00:21:27;;;;;;;20.23;18.20;;;14.90;99.90;;;;;;6130656;23;20687;-90
2021/09/19 00:23:53;;;;;;;21.67;18.93;;;14.70;99.90;;;;;;6129579;23;20442;-90
2021/09/19 00:26:20;;;;;;;20.63;18.63;;;14.70;99.90;;;;;;6130044;23;20418;-90
2021/09/19 00:28:53;;;;;;;20.70;18.70;;;14.70;99.90;;;;;;6129888;23;20919;-90
2021/09/19 00:31:24;;;;;;;20.03;18.00;;;14.60;99.90;;;;;;6130679;23;20460;-90
2021/09/19 00:33:51;;;;;;;19.63;17.93;;;14.60;99.90;;;;;;6134566;23;20411;-88
2021/09/19 00:36:18;;;;;;;20.37;18.47;;;14.60;99.90;;;;;;6140999;23;20406;-90
2021/09/19 00:38:46;;;;;;;20.40;18.37;;;14.50;99.90;;;;;;6129487;23;20454;-90
2021/09/19 00:41:13;;;;;;;20.80;18.27;;;14.50;99.90;;;;;;6131871;23;20471;-89
2021/09/19 00:43:39;;;;;;;22.03;20.03;;;14.50;99.90;;;;;;6141546;23;20418;-90
2021/09/19 00:46:06;;;;;;;20.37;18.60;;;14.40;99.90;;;;;;6128876;23;20396;-89
2021/09/19 00:48:33;;;;;;;19.23;17.37;;;14.30;99.90;;;;;;6128277;23;20422;-90
2021/09/19 00:51:01;;;;;;;19.37;17.53;;;14.40;99.90;;;;;;6128762;23;20625;-90
2021/09/19 00:53:28;;;;;;;18.30;16.60;;;14.40;99.90;;;;;;6128539;23;20450;-90
2021/09/19 00:55:58;;;;;;;19.30;17.50;;;14.30;99.90;;;;;;6128532;23;20502;-90
2021/09/19 00:58:25;;;;;;;19.03;17.33;;;14.30;99.90;;;;;;6137222;23;20394;-89
2021/09/19 01:00:52;;;;;;;20.63;18.73;;;14.30;99.90;;;;;;6130519;23;20428;-89
2021/09/19 01:03:19;;;;;;;19.10;17.30;;;14.20;99.90;;;;;;6129455;23;20407;-90
2021/09/19 01:05:47;;;;;;;19.13;17.23;;;14.30;99.90;;;;;;6129483;23;20411;-90
2021/09/19 01:08:15;;;;;;;18.20;16.50;;;14.30;99.90;;;;;;6129370;23;20408;-90
2021/09/19 01:10:44;;;;;;;19.73;17.63;;;14.30;99.90;;;;;;6129538;23;20424;-89
2021/09/19 01:13:13;;;;;;;17.40;15.90;;;14.30;99.90;;;;;;6133658;23;20729;-89
2021/09/19 01:15:41;;;;;;;19.57;17.77;;;14.30;99.90;;;;;;6130391;23;20416;-89
2021/09/19 01:18:09;;;;;;;20.10;18.20;;;14.30;99.90;;;;;;6144767;23;20907;-90
2021/09/19 01:20:36;;;;;;;19.27;17.40;;;14.20;99.90;;;;;;6129688;23;20446;-90
2021/09/19 01:23:05;;;;;;;20.10;18.30;;;14.10;99.90;;;;;;6129409;23;20467;-90
2021/09/19 01:25:34;;;;;;;16.87;15.47;;;14.00;99.90;;;;;;6133606;23;20395;-90
2021/09/19 01:28:02;;;;;;;18.23;15.70;;;14.00;99.90;;;;;;6131076;23;20435;-88
2021/09/19 01:30:29;;;;;;;17.67;16.07;;;14.00;99.90;;;;;;6130065;23;20436;-88
2021/09/19 01:32:56;;;;;;;20.27;17.03;;;14.10;99.90;;;;;;6149940;23;20476;-88
2021/09/19 01:35:23;;;;;;;16.57;15.07;;;14.10;99.90;;;;;;6147996;23;20442;-89
2021/09/19 01:37:50;;;;;;;18.67;16.97;;;14.00;99.90;;;;;;6131747;23;20411;-90
2021/09/19 01:40:17;;;;;;;17.70;16.03;;;14.00;99.90;;;;;;6147651;23;20469;-89
2021/09/19 01:42:45;;;;;;;19.93;17.93;;;14.00;99.90;;;;;;6151370;23;20441;-91
2021/09/19 01:45:12;;;;;;;20.00;18.03;;;13.90;99.90;;;;;;6130337;23;20490;-90
2021/09/19 01:47:39;;;;;;;18.80;16.80;;;13.90;99.90;;;;;;6128538;23;20925;-89
2021/09/19 01:50:07;;;;;;;18.30;16.60;;;13.90;99.90;;;;;;6127778;23;20433;-90
2021/09/19 01:52:34;;;;;;;18.33;16.20;;;13.90;99.90;;;;;;6127654;23;20418;-90
2021/09/19 01:55:01;;;;;;;18.77;16.67;;;13.90;99.90;;;;;;6132788;23;20408;-89
2021/09/19 01:57:28;;;;;;;18.70;16.77;;;13.80;99.90;;;;;;6140250;23;20759;-88
2021/09/19 01:59:58;;;;;;;17.73;15.97;;;13.90;99.90;;;;;;6139262;23;20445;-89
2021/09/19 02:02:25;;;;;;;20.00;17.27;;;13.90;99.90;;;;;;6127444;23;20410;-90
2021/09/19 02:04:54;;;;;;;17.30;15.47;;;13.90;99.90;;;;;;6128118;23;20407;-89
2021/09/19 02:07:21;;;;;;;16.93;15.43;;;13.90;99.90;;;;;;6128643;23;20412;-90
2021/09/19 02:09:48;;;;;;;15.97;14.50;;;13.90;99.90;;;;;;6127047;23;20436;-89
2021/09/19 02:12:15;;;;;;;16.20;14.60;;;13.90;99.90;;;;;;6128926;23;20415;-90
2021/09/19 02:14:42;;;;;;;17.40;15.90;;;13.80;99.90;;;;;;6129974;23;20410;-89
2021/09/19 02:17:11;;;;;;;18.07;16.37;;;13.90;99.90;;;;;;6129200;23;20414;-90
2021/09/19 02:19:38;;;;;;;15.60;14.20;;;13.90;99.90;;;;;;6129694;23;20448;-90
2021/09/19 02:22:07;;;;;;;15.87;14.47;;;13.90;99.90;;;;;;6130244;23;20411;-90
2021/09/19 02:24:34;;;;;;;16.90;15.20;;;13.80;99.90;;;;;;6131067;23;20413;-90
2021/09/19 02:27:01;;;;;;;15.70;14.20;;;13.80;99.90;;;;;;6146982;23;20556;-88
2021/09/19 02:29:27;;;;;;;15.13;13.73;;;13.70;99.90;;;;;;6155856;23;20458;-89
2021/09/19 02:31:54;;;;;;;16.23;14.63;;;13.80;99.90;;;;;;6155854;23;20443;-88
2021/09/19 02:34:22;;;;;;;15.43;14.03;;;13.80;99.90;;;;;;6155425;23;20486;-89
2021/09/19 02:36:49;;;;;;;15.90;14.07;;;13.90;99.90;;;;;;6155452;23;20467;-88
2021/09/19 02:39:16;;;;;;;16.67;15.10;;;13.90;99.90;;;;;;6152053;23;20508;-88
2021/09/19 02:41:43;;;;;;;17.47;15.97;;;13.70;99.90;;;;;;6153851;23;20481;-88
2021/09/19 02:44:10;;;;;;;16.77;15.17;;;13.80;99.90;;;;;;6154383;23;20403;-87
2021/09/19 02:46:36;;;;;;;16.50;15.10;;;13.60;99.90;;;;;;6155261;23;20408;-87
2021/09/19 02:49:03;;;;;;;16.40;15.00;;;13.60;99.90;;;;;;6154553;23;20421;-87
2021/09/19 02:51:33;;;;;;;16.50;14.90;;;13.50;99.90;;;;;;6146775;23;20408;-90
2021/09/19 02:54:00;;;;;;;17.47;15.87;;;13.50;99.90;;;;;;6132342;23;20408;-90
2021/09/19 02:56:26;;;;;;;15.83;14.33;;;13.40;99.90;;;;;;6131527;23;20415;-89
2021/09/19 02:58:53;;;;;;;16.50;14.83;;;13.40;99.90;;;;;;6131618;23;20418;-89
2021/09/19 03:01:20;;;;;;;15.20;13.87;;;13.40;99.90;;;;;;6130348;23;20456;-90
2021/09/19 03:03:46;;;;;;;16.30;14.60;;;13.40;99.90;;;;;;6132050;23;20417;-89
2021/09/19 03:06:13;;;;;;;16.30;14.47;;;13.50;99.90;;;;;;6131392;23;20762;-89
2021/09/19 03:08:41;;;;;;;17.83;15.73;;;13.40;99.90;;;;;;6130711;23;20400;-89
2021/09/19 03:11:08;;;;;;;15.80;14.33;;;13.40;99.90;;;;;;6131835;23;20436;-89
2021/09/19 03:13:35;;;;;;;15.23;13.93;;;13.40;99.90;;;;;;6136233;23;20748;-89
2021/09/19 03:16:02;;;;;;;16.50;14.90;;;13.40;99.90;;;;;;6137917;23;20408;-89
2021/09/19 03:18:28;;;;;;;15.70;14.10;;;13.40;99.90;;;;;;6133675;23;20401;-89
2021/09/19 03:20:55;;;;;;;16.30;14.60;;;13.40;99.90;;;;;;6130423;23;20443;-90
2021/09/19 03:23:22;;;;;;;13.93;12.73;;;13.30;99.90;;;;;;6129035;23;20402;-89
2021/09/19 03:25:50;;;;;;;13.40;12.20;;;13.40;99.90;;;;;;6128823;23;20413;-89
2021/09/19 03:28:17;;;;;;;13.03;11.83;;;13.40;99.90;;;;;;6129570;23;20408;-90
2021/09/19 03:30:44;;;;;;;15.17;13.77;;;13.40;99.90;;;;;;6128360;23;20771;-89
2021/09/19 03:33:10;;;;;;;14.23;12.97;;;13.40;99.90;;;;;;6128744;23;20416;-89
2021/09/19 03:35:37;;;;;;;16.20;14.67;;;13.20;99.90;;;;;;6133347;23;20405;-87
2021/09/19 03:38:04;;;;;;;16.53;15.03;;;13.20;99.90;;;;;;6142433;23;20438;-91
2021/09/19 03:40:31;;;;;;;16.93;15.43;;;13.20;99.90;;;;;;6131928;23;20959;-91
2021/09/19 03:42:59;;;;;;;14.73;13.27;;;13.20;99.90;;;;;;6150842;23;20408;-90
2021/09/19 03:45:28;;;;;;;15.50;13.43;;;13.20;99.90;;;;;;6154303;23;20397;-90
2021/09/19 03:47:57;;;;;;;14.63;13.33;;;13.10;99.90;;;;;;6150210;23;20415;-89
2021/09/19 03:50:23;;;;;;;15.83;14.40;;;13.00;99.90;;;;;;6137428;23;20429;-90
2021/09/19 03:52:50;;;;;;;14.37;13.03;;;13.10;99.90;;;;;;6130344;23;20552;-90
2021/09/19 03:55:17;;;;;;;14.40;13.00;;;13.00;99.90;;;;;;6130792;23;20428;-90
2021/09/19 03:57:44;;;;;;;14.40;13.17;;;13.00;99.90;;;;;;6130044;23;21004;-91
2021/09/19 04:00:13;;;;;;;14.10;12.80;;;12.90;99.90;;;;;;6129307;23;20445;-89
2021/09/19 04:02:40;;;;;;;14.30;13.00;;;13.00;99.90;;;;;;6128250;23;20424;-90
2021/09/19 04:05:08;;;;;;;15.47;13.97;;;13.00;99.90;;;;;;6128245;23;20486;-89
2021/09/19 04:07:35;;;;;;;16.20;14.70;;;12.90;99.90;;;;;;6127515;23;20962;-89
2021/09/19 04:10:02;;;;;;;14.83;13.43;;;12.90;99.90;;;;;;6127532;23;20946;-91
2021/09/19 04:12:29;;;;;;;17.20;15.70;;;12.80;99.90;;;;;;6128608;23;20421;-90
2021/09/19 04:14:56;;;;;;;14.83;13.30;;;12.90;99.90;;;;;;6129323;23;20409;-90
2021/09/19 04:17:24;;;;;;;16.23;14.73;;;12.90;99.90;;;;;;6128597;23;20412;-91
2021/09/19 04:19:50;;;;;;;16.23;14.17;;;12.80;99.90;;;;;;6127934;23;20447;-90
2021/09/19 04:22:17;;;;;;;16.57;14.87;;;12.80;99.90;;;;;;6128786;23;20896;-88
2021/09/19 04:24:44;;;;;;;16.20;14.80;;;12.80;99.90;;;;;;6128813;23;20891;-89
2021/09/19 04:27:11;;;;;;;14.93;13.53;;;12.90;99.90;;;;;;6132032;23;20427;-90
2021/09/19 04:29:37;;;;;;;14.83;13.47;;;12.90;99.90;;;;;;6134268;23;20943;-90
2021/09/19 04:32:05;;;;;;;14.67;13.20;;;12.80;99.90;;;;;;6128851;23;20380;-90
2021/09/19 04:34:33;;;;;;;15.70;13.00;;;12.70;99.90;;;;;;6136568;23;20397;-90
2021/09/19 04:37:00;;;;;;;14.17;12.77;;;12.70;99.90;;;;;;6129149;23;20913;-90
2021/09/19 04:39:27;;;;;;;15.00;13.60;;;12.70;99.90;;;;;;6128203;23;20518;-90
2021/09/19 04:41:53;;;;;;;14.63;13.33;;;12.70;99.90;;;;;;6127611;23;20857;-91
2021/09/19 04:44:20;;;;;;;13.73;12.50;;;12.70;99.90;;;;;;6128312;23;20731;-91
2021/09/19 04:46:47;;;;;;;15.20;13.77;;;12.60;99.90;;;;;;6133346;23;20744;-91
2021/09/19 04:49:13;;;;;;;14.70;13.30;;;12.60;99.90;;;;;;6147312;23;20876;-88
2021/09/19 04:51:42;;;;;;;14.87;13.63;;;12.60;99.90;;;;;;6133235;23;20404;-89
2021/09/19 04:54:08;;;;;;;14.70;13.40;;;12.50;99.90;;;;;;6131333;23;20401;-89
2021/09/19 04:56:35;;;;;;;15.30;13.80;;;12.40;99.90;;;;;;6140254;23;20888;-88
2021/09/19 04:59:02;;;;;;;15.47;14.07;;;12.20;99.90;;;;;;6149552;23;20437;-88
2021/09/19 05:01:28;;;;;;;14.60;13.30;;;12.30;99.90;;;;;;6150445;23;20444;-88
2021/09/19 05:03:55;;;;;;;15.13;13.83;;;12.30;99.90;;;;;;6152139;23;20413;-88
2021/09/19 05:06:22;;;;;;;14.90;13.60;;;12.40;99.90;;;;;;6150393;23;20391;-87
2021/09/19 05:08:50;;;;;;;14.30;12.93;;;12.40;99.90;;;;;;6150915;23;20432;-88
2021/09/19 05:11:17;;;;;;;14.97;13.50;;;12.50;99.90;;;;;;6151673;23;20470;-88
2021/09/19 05:13:44;;;;;;;13.73;12.47;;;12.50;99.90;;;;;;6149550;23;20397;-87
2021/09/19 05:16:11;;;;;;;13.93;12.63;;;12.50;99.90;;;;;;6141587;23;20463;-88
2021/09/19 05:18:37;;;;;;;13.80;12.60;;;12.50;99.90;;;;;;6135318;23;20403;-89
2021/09/19 05:21:04;;;;;;;15.60;14.03;;;12.50;99.90;;;;;;6141481;23;20449;-88
2021/09/19 05:23:31;;;;;;;14.77;13.37;;;12.60;99.90;;;;;;6147523;23;20458;-88
2021/09/19 05:25:59;;;;;;;15.40;13.97;;;12.50;99.90;;;;;;6143870;23;20892;-89
2021/09/19 05:28:26;;;;;;;15.60;14.20;;;12.50;99.90;;;;;;6134058;23;20422;-89
2021/09/19 05:30:53;;;;;;;12.83;11.60;;;12.50;99.90;;;;;;6139584;23;20433;-89
2021/09/19 05:33:21;;;;;;;14.87;13.50;;;12.60;99.90;;;;;;6150423;23;20404;-90
2021/09/19 05:35:48;;;;;;;15.23;13.73;;;12.70;99.90;;;;;;6130624;23;20409;-89
2021/09/19 05:38:16;;;;;;;12.50;11.40;;;12.70;99.90;;;;;;6129687;23;20921;-89
2021/09/19 05:40:44;;;;;;;15.33;13.90;;;12.80;99.90;;;;;;6141520;23;20435;-87
2021/09/19 05:43:12;;;;;;;13.90;12.60;;;12.80;99.90;;;;;;6153343;23;20417;-88
2021/09/19 05:45:39;;;;;;;12.13;11.00;;;12.90;99.90;;;;;;6150265;23;20591;-88
2021/09/19 05:48:06;;;;;;;13.03;11.83;;;12.90;99.90;;;;;;6146327;23;20503;-90
2021/09/19 05:50:33;;;;;;;13.37;12.10;;;13.00;99.90;;;;;;6129755;23;20752;-88
2021/09/19 05:53:00;;;;;;;12.30;11.20;;;13.00;99.90;;;;;;6130536;23;20415;-90
2021/09/19 05:55:27;;;;;;;13.57;12.37;;;13.00;99.90;;;;;;6147350;23;20400;-88
2021/09/19 05:57:54;;;;;;;13.93;12.53;;;12.90;99.90;;;;;;6152818;23;20409;-86
2021/09/19 06:00:22;;;;;;;14.20;12.80;;;12.90;99.90;;;;;;6146056;23;20462;-90
2021/09/19 06:02:49;;;;;;;13.53;12.33;;;12.90;99.90;;;;;;6129714;23;20409;-90
2021/09/19 06:05:16;;;;;;;12.60;11.40;;;13.00;99.90;;;;;;6129407;23;20420;-89
2021/09/19 06:07:42;;;;;;;13.60;12.23;;;13.00;99.90;;;;;;6131984;23;20465;-83
2021/09/19 06:10:10;;;;;;;13.10;11.70;;;13.10;99.90;;;;;;6134816;23;20427;-80
2021/09/19 06:12:37;;;;;;;14.23;12.77;;;13.20;99.90;;;;;;6136363;23;20932;-81
2021/09/19 06:15:05;;;;;;;14.70;13.30;;;13.30;99.90;;;;;;6141968;23;20409;-80
2021/09/19 06:17:33;;;;;;;14.20;12.80;;;13.30;99.90;;;;;;6138419;23;20410;-80
2021/09/19 06:20:00;;;;;;;11.97;10.97;;;13.30;99.90;;;;;;6137808;23;20427;-82
2021/09/19 06:22:27;;;;;;;12.47;11.37;;;13.40;99.90;;;;;;6136442;23;20445;-88
2021/09/19 06:24:54;;;;;;;11.90;10.90;;;13.40;99.90;;;;;;6135851;23;20498;-88
2021/09/19 06:27:21;;;;;;;12.60;11.50;;;13.50;99.90;;;;;;6129017;23;20414;-88
2021/09/19 06:29:48;;;;;;;11.83;10.93;;;13.50;99.90;;;;;;6126899;23;20448;-86
2021/09/19 06:32:15;;;;;;;12.93;11.83;;;13.70;99.90;;;;;;6127181;23;20481;-88
2021/09/19 06:34:43;;;;;;;11.43;10.37;;;13.70;99.90;;;;;;6127013;23;20746;-88
2021/09/19 06:37:10;;;;;;;12.20;11.07;;;13.80;99.90;;;;;;6126877;23;20418;-87
2021/09/19 06:39:37;;;;;;;11.17;10.17;;;13.80;99.90;;;;;;6126460;23;20437;-88
2021/09/19 06:42:04;;;;;;;10.87;9.97;;;13.90;99.90;;;;;;6126717;23;20446;-88
2021/09/19 06:44:31;;;;;;;13.53;12.23;;;13.90;99.90;;;;;;6127029;23;20477;-88
2021/09/19 06:46:58;;;;;;;11.23;10.23;;;14.00;99.90;;;;;;6126842;23;20406;-89
2021/09/19 06:49:25;;;;;;;11.30;10.10;;;14.00;99.90;;;;;;6126885;23;20442;-88
2021/09/19 06:51:54;;;;;;;11.80;10.70;;;14.10;99.90;;;;;;6127004;23;20946;-88
2021/09/19 06:54:20;;;;;;;10.77;9.77;;;14.20;99.90;;;;;;6126660;23;20991;-90
2021/09/19 06:56:48;;;;;;;9.77;8.97;;;14.30;99.90;;;;;;6128789;23;20414;-89
2021/09/19 06:59:16;;;;;;;11.33;9.03;;;14.40;99.90;;;;;;6126286;23;20415;-89
2021/09/19 07:01:43;;;;;;;10.03;9.20;;;14.50;99.90;;;;;;6128395;23;20447;-88
2021/09/19 07:04:10;;;;;;;9.17;8.27;;;14.50;99.90;;;;;;6131506;23;20899;-87
2021/09/19 07:06:37;;;;;;;9.23;8.37;;;14.60;99.90;;;;;;6140874;23;20408;-88
2021/09/19 07:09:05;;;;;;;8.17;7.47;;;14.70;99.90;;;;;;6127789;23;20399;-87
2021/09/19 07:11:32;;;;;;;8.20;7.57;;;14.80;99.90;;;;;;6131189;23;20446;-88
2021/09/19 07:13:58;;;;;;;7.50;6.87;;;14.80;99.90;;;;;;6136963;23;20417;-88
2021/09/19 07:16:25;;;;;;;6.97;6.37;;;14.90;99.90;;;;;;6137409;23;20479;-88
2021/09/19 07:18:52;;;;;;;7.03;6.43;;;15.00;99.90;;;;;;6131390;23;20418;-88
2021/09/19 07:21:19;;;;;;;7.10;6.60;;;15.00;99.90;;;;;;6129223;23;21051;-88
2021/09/19 07:23:46;;;;;;;5.97;5.50;;;15.10;99.90;;;;;;6129807;23;20419;-88
2021/09/19 07:26:14;;;;;;;6.73;6.13;;;15.30;99.90;;;;;;6129341;23;20415;-88
2021/09/19 07:28:41;;;;;;;6.53;6.03;;;15.50;99.90;;;;;;6128304;23;20404;-87
2021/09/19 07:31:08;;;;;;;6.40;5.87;;;15.50;99.90;;;;;;6129299;23;20450;-89
2021/09/19 07:33:35;;;;;;;6.17;5.57;;;15.50;99.90;;;;;;6134574;23;20412;-88
2021/09/19 07:36:03;;;;;;;8.40;7.67;;;15.70;99.90;;;;;;6145288;23;20456;-87
2021/09/19 07:38:30;;;;;;;6.60;6.10;;;15.50;99.90;;;;;;6139909;23;20410;-88
2021/09/19 07:40:57;;;;;;;6.83;6.13;;;15.70;99.90;;;;;;6143626;23;20440;-87
2021/09/19 07:43:26;;;;;;;5.43;4.97;;;15.80;99.90;;;;;;6143656;23;20412;-88
2021/09/19 07:45:53;;;;;;;5.90;5.40;;;15.90;99.90;;;;;;6139820;23;20722;-89
2021/09/19 07:48:21;;;;;;;6.70;6.13;;;16.00;99.90;;;;;;6152595;23;20463;-87
2021/09/19 07:50:48;;;;;;;6.23;5.73;;;16.10;99.90;;;;;;6141305;23;20424;-88
2021/09/19 07:53:16;;;;;;;6.60;6.10;;;16.20;99.90;;;;;;6132202;23;20392;-88
2021/09/19 07:55:43;;;;;;;6.40;5.90;;;16.40;99.90;;;;;;6131585;23;20408;-88
2021/09/19 07:58:09;;;;;;;6.87;6.27;;;17.10;99.90;;;;;;6130767;23;20439;-85
2021/09/19 08:00:38;;;;;;;7.73;6.93;;;17.30;99.90;;;;;;6151196;23;20472;-86
2021/09/19 08:03:04;;;;;;;7.80;7.20;;;17.50;99.90;;;;;;6134232;23;20404;-87
2021/09/19 08:05:31;;;;;;;8.30;7.50;;;17.60;99.90;;;;;;6129822;23;20419;-88
2021/09/19 08:07:58;;;;;;;9.07;8.27;;;17.50;99.90;;;;;;6142054;23;20412;-87
2021/09/19 08:10:25;;;;;;;8.10;7.40;;;17.50;99.90;;;;;;6150037;23;20414;-86
2021/09/19 08:12:52;;;;;;;7.60;6.70;;;17.60;99.90;;;;;;6147716;23;20415;-87
2021/09/19 08:15:20;;;;;;;7.50;6.90;;;17.70;99.90;;;;;;6147681;23;20431;-87
2021/09/19 08:17:49;;;;;;;8.27;7.53;;;18.00;99.90;;;;;;6147734;23;20467;-87
2021/09/19 08:20:17;;;;;;;8.70;8.03;;;18.30;99.90;;;;;;6129951;23;20431;-88
2021/09/19 08:22:44;;;;;;;7.30;6.77;;;18.70;99.90;;;;;;6128913;23;20454;-88
2021/09/19 08:25:12;;;;;;;6.43;5.93;;;18.90;99.90;;;;;;6141416;23;20464;-88
2021/09/19 08:27:40;;;;;;;5.90;5.40;;;18.70;99.90;;;;;;6138629;23;20408;-88
2021/09/19 08:30:10;;;;;;;6.70;6.10;;;18.80;99.90;;;;;;6128568;23;20503;-88
2021/09/19 08:32:37;;;;;;;7.67;6.97;;;18.90;99.90;;;;;;6134096;23;20405;-88
2021/09/19 08:35:07;;;;;;;6.70;6.20;;;18.90;99.90;;;;;;6128712;23;20415;-87
2021/09/19 08:38:01;;;;;;;7.70;7.00;;;18.90;99.90;;;;;;6127094;23;20409;-88
2021/09/19 08:40:55;;;;;;;6.57;6.07;;;19.00;99.90;;;;;;6125737;23;20426;-89
2021/09/19 08:43:22;;;;;;;6.40;5.90;;;19.10;99.90;;;;;;6077493;23;20413;-90
2021/09/19 08:52:12;;;;;;;6.17;5.67;;;19.20;99.90;;;;;;6153905;23;20368;-87
2021/09/19 08:54:58;;;;;;;6.20;5.73;;;19.20;99.80;;;;;;6152862;23;20417;-87
2021/09/19 08:57:25;;;;;;;6.50;6.00;;;19.40;99.90;;;;;;6152907;23;20404;-87
2021/09/19 08:59:53;;;;;;;6.67;6.17;;;19.70;99.70;;;;;;6146177;23;20540;-88
2021/09/19 09:02:21;;;;;;;7.30;6.80;;;20.20;99.30;;;;;;6130520;23;20474;-89
2021/09/19 09:04:58;;;;;;;10.50;8.50;;;21.30;97.90;;;;;;6153376;23;20448;-91
2021/09/19 09:07:26;;;;;;;6.20;5.80;;;23.00;94.60;;;;;;6152565;23;20402;-91
2021/09/19 09:10:00;;;;;;;6.10;5.67;;;25.30;91.20;;;;;;6151703;23;20436;-92
2021/09/19 09:12:28;;;;;;;5.03;4.73;;;27.50;80.50;;;;;;6148090;23;20437;-90
2021/09/19 09:14:57;;;;;;;6.10;5.50;;;29.80;72.70;;;;;;6130365;23;20459;-89
2021/09/19 09:17:26;;;;;;;6.20;5.70;;;30.90;63.90;;;;;;6140078;23;20400;-88
2021/09/19 09:19:54;;;;;;;5.00;4.70;;;31.80;58.80;;;;;;6136986;23;20487;-89
2021/09/19 09:22:24;;;;;;;4.93;4.60;;;32.30;56.50;;;;;;6128967;23;20435;-89
2021/09/19 09:25:08;;;;;;;5.67;5.20;;;33.70;54.50;;;;;;6128966;23;20411;-83
2021/09/19 09:27:39;;;;;;;5.57;5.17;;;34.40;50.80;;;;;;6127232;23;20739;-82
2021/09/19 09:30:11;;;;;;;5.00;4.70;;;34.10;49.70;;;;;;6127744;23;20435;-81
2021/09/19 09:32:52;;;;;;;5.17;4.77;;;33.80;50.40;;;;;;6128083;23;20387;-81
2021/09/19 09:35:20;;;;;;;5.43;5.03;;;34.20;49.90;;;;;;6129821;23;20407;-81
2021/09/19 09:37:47;;;;;;;5.20;4.80;;;35.20;47.80;;;;;;6128782;23;20408;-81
2021/09/19 09:40:18;;;;;;;4.70;4.40;;;35.60;46.60;;;;;;6128439;23;20428;-81
2021/09/19 09:43:05;;;;;;;5.10;4.80;;;36.20;45.40;;;;;;6127359;23;20436;-82
2021/09/19 09:45:35;;;;;;;4.73;4.40;;;36.70;43.80;;;;;;6135969;23;20388;-81
2021/09/19 09:48:03;;;;;;;5.30;4.87;;;36.90;42.30;;;;;;6137459;23;20420;-82
2021/09/19 09:50:31;;;;;;;4.73;4.43;;;35.80;43.70;;;;;;6142530;23;20428;-81
2021/09/19 09:53:12;;;;;;;4.80;4.43;;;36.80;43.10;;;;;;6148524;23;20411;-81
2021/09/19 09:55:46;;;;;;;6.27;5.87;;;37.70;42.00;;;;;;6136180;23;20412;-82
2021/09/19 09:58:17;;;;;;;6.13;5.60;;;36.70;41.30;;;;;;6128055;23;20414;-81
2021/09/19 10:00:45;;;;;;;4.90;4.50;;;35.90;42.50;;;;;;6130353;23;20523;-81
2021/09/19 10:03:12;;;;;;;5.20;4.80;;;35.10;44.00;;;;;;6130922;23;20447;-82
2021/09/19 10:05:40;;;;;;;5.17;4.87;;;35.40;44.10;;;;;;6132260;23;20982;-82
2021/09/19 10:08:07;;;;;;;5.10;4.80;;;35.90;43.00;;;;;;6128726;23;20896;-82
2021/09/19 10:10:40;;;;;;;5.10;4.60;;;36.30;42.70;;;;;;6132268;23;20432;-81
2021/09/19 10:13:09;;;;;;;4.63;4.33;;;36.80;41.40;;;;;;6133373;23;20408;-81
2021/09/19 10:15:37;;;;;;;4.73;4.40;;;36.40;41.30;;;;;;6133470;23;20418;-81
2021/09/19 10:18:04;;;;;;;5.67;5.20;;;36.60;41.70;;;;;;6135700;23;20906;-81
2021/09/19 10:20:38;;;;;;;4.97;4.57;;;36.10;41.30;;;;;;6130435;23;20428;-82
2021/09/19 10:23:08;;;;;;;4.60;4.30;;;35.70;42.20;;;;;;6131540;23;20455;-82
2021/09/19 10:25:40;;;;;;;6.50;6.10;;;35.00;43.40;;;;;;6136040;23;20418;-82
2021/09/19 10:28:24;;;;;;;6.13;5.73;;;33.20;45.10;;;;;;6133397;23;20399;-82
2021/09/19 10:31:20;;;;;;;5.13;4.83;;;33.80;45.30;;;;;;6132146;23;20427;-81
2021/09/19 10:33:51;;;;;;;5.77;5.33;;;35.40;44.30;;;;;;6127757;23;20416;-82
2021/09/19 10:36:25;;;;;;;5.40;4.90;;;35.50;42.30;;;;;;6129128;23;20418;-82
2021/09/19 10:38:52;;;;;;;5.30;4.33;;;36.30;42.20;;;;;;6129736;23;20874;-80
2021/09/19 10:41:24;;;;;;;6.17;5.67;;;37.00;41.00;;;;;;6131975;23;20419;-80
2021/09/19 10:43:53;;;;;;;5.27;4.80;;;36.10;40.70;;;;;;6130674;23;20398;-81
2021/09/19 10:46:46;;;;;;;5.80;5.40;;;35.60;43.00;;;;;;6131742;23;20392;-80
2021/09/19 10:49:16;;;;;;;5.83;5.43;;;35.10;42.10;;;;;;6131576;23;20435;-80
2021/09/19 10:52:11;;;;;;;5.13;4.83;;;35.00;43.00;;;;;;6138471;23;20487;-81
2021/09/19 10:54:47;;;;;;;6.00;5.60;;;35.20;42.80;;;;;;6133579;23;20412;-81
2021/09/19 10:57:18;;;;;;;7.03;6.53;;;35.10;42.20;;;;;;6128712;23;20395;-82
2021/09/19 11:00:17;;;;;;;4.93;4.63;;;33.60;44.30;;;;;;6128845;23;20412;-81
2021/09/19 11:03:01;;;;;;;3.97;3.70;;;34.80;44.00;;;;;;6134271;23;20427;-81
2021/09/19 11:05:30;;;;;;;5.50;5.00;;;35.70;42.40;;;;;;6137848;23;20422;-81
2021/09/19 11:08:23;;;;;;;5.70;5.30;;;34.40;43.30;;;;;;6132545;23;20408;-81
2021/09/19 11:11:21;;;;;;;4.80;4.50;;;35.20;42.40;;;;;;6130807;23;20455;-81
2021/09/19 11:14:01;;;;;;;5.20;4.77;;;36.10;41.50;;;;;;6042091;23;20524;-82
2021/09/19 11:16:38;;;;;;;4.83;4.53;;;37.30;40.20;;;;;;6044675;23;20429;-85
2021/09/19 11:19:07;;;;;;;4.57;4.27;;;37.60;39.60;;;;;;6040498;23;20433;-81
2021/09/19 11:21:50;;;;;;;4.80;4.50;;;38.70;38.30;;;;;;6067346;23;20407;-81
2021/09/19 11:24:23;;;;;;;5.97;5.47;;;38.50;38.00;;;;;;6129214;23;20392;-81
2021/09/19 11:26:52;;;;;;;5.20;4.80;;;39.20;37.20;;;;;;6132252;23;20396;-82
2021/09/19 11:29:25;;;;;;;5.30;5.00;;;38.80;36.60;;;;;;6139355;23;20419;-82
2021/09/19 11:31:56;;;;;;;5.20;4.80;;;39.50;36.00;;;;;;6131117;23;20399;-83
2021/09/19 11:34:24;;;;;;;5.20;4.70;;;39.90;35.80;;;;;;6128430;23;20395;-81
2021/09/19 11:36:52;;;;;;;4.73;4.43;;;40.20;34.70;;;;;;6128827;23;20581;-84
2021/09/19 11:39:20;;;;;;;5.30;4.90;;;39.40;36.30;;;;;;6127347;23;20427;-82
2021/09/19 11:41:48;;;;;;;6.00;5.50;;;39.50;35.30;;;;;;6127110;23;20910;-81
2021/09/19 11:44:17;;;;;;;5.63;5.17;;;39.20;35.20;;;;;;6127531;23;20415;-81
2021/09/19 11:46:45;;;;;;;4.80;4.50;;;37.60;36.90;;;;;;6133905;23;20412;-81
2021/09/19 11:49:14;;;;;;;5.03;4.57;;;37.80;38.00;;;;;;6134162;23;20416;-81
2021/09/19 11:51:42;;;;;;;5.13;4.73;;;38.50;36.90;;;;;;6148354;23;20388;-81
2021/09/19 11:54:15;;;;;;;5.20;4.70;;;38.80;36.30;;;;;;6146624;23;20708;-81
2021/09/19 11:56:45;;;;;;;4.10;3.80;;;36.70;38.10;;;;;;6132679;23;20403;-81
2021/09/19 11:59:14;;;;;;;4.73;4.43;;;36.30;39.60;;;;;;6131143;23;20463;-81
2021/09/19 12:01:42;;;;;;;4.70;4.40;;;37.20;38.80;;;;;;6128340;23;20411;-81
2021/09/19 12:04:10;;;;;;;4.73;4.43;;;37.70;37.70;;;;;;6127229;23;20454;-81
2021/09/19 12:07:15;;;;;;;;;;;;;;;;;;;;;
2021/09/19 12:09:49;;;;;;;5.87;5.47;;;35.60;39.30;;;;;;6130636;23;20414;-90
2021/09/19 12:12:17;;;;;;;4.43;4.13;;;32.90;42.80;;;;;;6131805;23;20772;-90
2021/09/19 12:14:47;;;;;;;4.90;4.43;;;31.50;46.00;;;;;;6130090;23;20909;-91
2021/09/19 12:17:14;;;;;;;5.43;4.83;;;31.90;45.90;;;;;;6129035;23;20415;-91
2021/09/19 12:19:45;;;;;;;4.70;4.40;;;32.80;44.50;;;;;;6129614;23;20547;-92
2021/09/19 12:22:19;;;;;;;4.27;3.97;;;33.90;42.60;;;;;;6129384;23;20419;-92
2021/09/19 12:24:46;;;;;;;4.60;4.20;;;34.20;42.60;;;;;;6136152;23;20459;-90
2021/09/19 12:27:20;;;;;;;6.90;4.17;;;35.50;40.80;;;;;;6147442;23;20407;-87
2021/09/19 12:29:58;;;;;;;4.17;3.87;;;36.70;39.20;;;;;;6148459;23;20388;-88
2021/09/19 12:32:41;;;;;;;4.77;4.37;;;37.80;37.40;;;;;;6142387;23;20384;-90
2021/09/19 12:35:09;;;;;;;4.17;3.80;;;37.80;36.80;;;;;;6139552;23;20430;-87
2021/09/19 12:37:41;;;;;;;4.70;4.40;;;38.40;36.50;;;;;;6151856;23;20392;-88
2021/09/19 12:40:11;;;;;;;4.90;4.40;;;38.60;36.30;;;;;;6133922;23;20391;-88
2021/09/19 12:42:37;;;;;;;3.67;3.40;;;39.00;35.90;;;;;;6132075;23;20826;-91
2021/09/19 12:45:09;;;;;;;5.30;4.90;;;39.50;35.40;;;;;;6130335;23;20428;-90
2021/09/19 12:47:37;;;;;;;4.57;4.27;;;38.50;35.80;;;;;;6131870;23;20878;-90
2021/09/19 12:50:07;;;;;;;4.80;4.27;;;38.50;36.10;;;;;;6151413;23;20412;-91
2021/09/19 12:52:36;;;;;;;4.10;3.80;;;37.40;37.00;;;;;;6141394;23;20384;-89
2021/09/19 12:55:05;;;;;;;4.60;4.30;;;37.10;37.70;;;;;;6151745;23;20428;-86